Time;durP1;ratioP1;P1;durP2;ratioP2;P2;SDS_P1;SDS_P2;PMS_P1;PMS_P2;Temp;Humidity;BMP_temperature;BMP_pressure;BME280_temperature;BME280_humidity;BME280_pressure;Samples;Min_cycle;Max_cycle;Signal;HPM_P1;HPM_P2
2023/06/03 00:02:16;;;;;;;;;;;;;;;6.16;100.00;99690.06;6185184;23;19912;-88
2023/06/03 00:04:41;;;;;;;;;;;;;;;6.08;100.00;99686.72;6185153;23;19919;-90
2023/06/03 00:07:07;;;;;;;;;;;;;;;6.09;100.00;99685.84;6184271;23;20189;-92
2023/06/03 00:09:33;;;;;;;;;;;;;;;6.09;100.00;99691.09;6184886;23;20403;-95
2023/06/03 00:11:58;;;;;;;;;;;;;;;5.99;100.00;99686.06;6159176;23;19912;-86
2023/06/03 00:14:24;;;;;;;;;;;;;;;5.99;100.00;99678.19;6184689;23;19917;-90
2023/06/03 00:16:49;;;;;;;;;;;;;;;6.00;100.00;99682.53;6183907;23;19916;-91
2023/06/03 00:19:15;;;;;;;;;;;;;;;6.00;100.00;99686.94;6158961;23;20221;-92
2023/06/03 00:21:49;;;;;;;;;;;;;;;5.97;100.00;99682.63;6159787;23;19912;-91
2023/06/03 00:24:22;;;;;;;;;;;;;;;5.99;100.00;99693.97;6160067;23;19916;-87
2023/06/03 00:26:51;;;;;;;;;;;;;;;5.94;100.00;99694.97;6185251;23;19936;-91
2023/06/03 00:29:19;;;;;;;;;;;;;;;5.98;100.00;99687.00;6184302;23;19912;-88
2023/06/03 00:31:44;;;;;;;;;;;;;;;5.93;100.00;99686.19;6183431;23;19922;-91
2023/06/03 00:34:10;;;;;;;;;;;;;;;5.94;100.00;99680.03;6185097;23;19991;-90
2023/06/03 00:36:35;;;;;;;;;;;;;;;5.95;100.00;99681.78;6159505;23;19916;-93
2023/06/03 00:39:03;;;;;;;;;;;;;;;5.92;100.00;99679.22;6158769;23;19917;-89
2023/06/03 00:41:29;;;;;;;;;;;;;;;5.94;100.00;99681.81;6157580;23;19983;-89
2023/06/03 00:43:54;;;;;;;;;;;;;;;5.94;100.00;99673.91;6184296;23;20312;-90
2023/06/03 00:46:20;;;;;;;;;;;;;;;5.93;100.00;99670.41;6182423;23;19935;-89
2023/06/03 00:48:45;;;;;;;;;;;;;;;5.93;100.00;99674.81;6156650;23;19923;-90
2023/06/03 00:51:12;;;;;;;;;;;;;;;5.91;100.00;99677.47;6157369;23;19913;-86
2023/06/03 00:53:37;;;;;;;;;;;;;;;5.88;100.00;99677.56;6184199;23;19916;-88
2023/06/03 00:56:03;;;;;;;;;;;;;;;5.85;100.00;99677.63;6157448;23;19991;-89
2023/06/03 00:58:29;;;;;;;;;;;;;;;5.83;100.00;99675.03;6156789;23;19912;-91
2023/06/03 01:00:55;;;;;;;;;;;;;;;5.87;100.00;99683.75;6156074;23;19919;-89
2023/06/03 01:03:20;;;;;;;;;;;;;;;5.88;100.00;99674.94;6184081;23;19999;-88
2023/06/03 01:05:54;;;;;;;;;;;;;;;5.85;100.00;99669.75;6157425;23;20240;-90
2023/06/03 01:08:31;;;;;;;;;;;;;;;5.85;100.00;99672.38;6158167;23;19924;-88
2023/06/03 01:11:03;;;;;;;;;;;;;;;5.83;100.00;99669.78;6159710;23;19913;-90
2023/06/03 01:13:32;;;;;;;;;;;;;;;5.82;100.00;99667.19;6159296;23;19943;-88
2023/06/03 01:16:04;;;;;;;;;;;;;;;5.82;100.00;99664.56;6183931;23;19912;-84
2023/06/03 01:18:30;;;;;;;;;;;;;;;5.77;100.00;99663.81;6159346;23;20337;-89
2023/06/03 01:20:59;;;;;;;;;;;;;;;5.75;100.00;99663.84;6185576;23;19919;-91
2023/06/03 01:23:28;;;;;;;;;;;;;;;5.75;100.00;99657.75;6158443;23;19999;-91
2023/06/03 01:25:56;;;;;;;;;;;;;;;5.73;100.00;99665.66;6158188;23;19920;-89
2023/06/03 01:28:23;;;;;;;;;;;;;;;5.75;100.00;99665.63;6158817;23;20346;-90
2023/06/03 01:30:49;;;;;;;;;;;;;;;5.76;100.00;99656.81;6158818;23;19916;-91
2023/06/03 01:33:16;;;;;;;;;;;;;;;5.74;100.00;99659.50;6177814;23;19909;-88
2023/06/03 01:35:41;;;;;;;;;;;;;;;5.71;100.00;99659.59;6160291;23;19920;-90
2023/06/03 01:38:07;;;;;;;;;;;;;;;5.74;100.00;99663.91;6160096;23;19963;-89
2023/06/03 01:40:36;;;;;;;;;;;;;;;5.74;100.00;99664.75;6186138;23;19919;-90
2023/06/03 01:43:01;;;;;;;;;;;;;;;5.75;100.00;99660.38;6160471;23;19919;-88
2023/06/03 01:45:26;;;;;;;;;;;;;;;5.75;100.00;99658.59;6184916;23;19908;-90
2023/06/03 01:47:52;;;;;;;;;;;;;;;5.74;100.00;99664.75;6159360;23;19916;-89
2023/06/03 01:50:17;;;;;;;;;;;;;;;5.72;100.00;99665.72;6187372;23;19912;-90
2023/06/03 01:52:43;;;;;;;;;;;;;;;5.71;100.00;99663.97;6186252;23;20332;-89
2023/06/03 01:55:09;;;;;;;;;;;;;;;5.70;100.00;99670.16;6160727;23;19912;-88
2023/06/03 01:57:35;;;;;;;;;;;;;;;5.73;100.00;99668.31;6160697;23;19912;-91
2023/06/03 05:16:17;;;;;;;;;;;;;;;5.57;100.00;99678.31;6167411;23;20343;-91
2023/06/03 05:18:43;;;;;;;;;;;;;;;5.51;100.00;99686.34;6186918;23;19920;-88
2023/06/03 05:21:18;;;;;;;;;;;;;;;5.50;100.00;99681.13;6160966;23;20020;-88
2023/06/03 05:23:44;;;;;;;;;;;;;;;5.52;100.00;99685.47;6160582;23;20328;-90
2023/06/03 05:26:09;;;;;;;;;;;;;;;5.55;100.00;99687.13;6186532;23;19939;-90
2023/06/03 05:28:35;;;;;;;;;;;;;;;5.80;100.00;99685.63;6160319;23;19920;-89
2023/06/03 05:31:00;;;;;;;;;;;;;;;5.88;100.00;99685.44;6158638;23;20031;-91
2023/06/03 05:33:26;;;;;;;;;;;;;;;5.97;100.00;99687.03;6160705;23;19916;-90
2023/06/03 05:35:54;;;;;;;;;;;;;;;6.08;100.00;99681.47;6186436;23;19912;-91
2023/06/03 05:38:20;;;;;;;;;;;;;;;6.07;100.00;99680.63;6186409;23;19920;-89
2023/06/03 05:40:46;;;;;;;;;;;;;;;5.90;100.00;99686.25;6186839;23;19919;-90
2023/06/03 05:43:11;;;;;;;;;;;;;;;5.86;100.00;99683.78;6160359;23;19912;-94
2023/06/03 05:45:36;;;;;;;;;;;;;;;5.72;100.00;99686.75;6158928;23;19923;-89
2023/06/03 05:48:02;;;;;;;;;;;;;;;5.75;100.00;99699.81;6160680;23;19916;-91
2023/06/03 05:50:27;;;;;;;;;;;;;;;5.66;100.00;99693.00;6160767;23;20337;-91
2023/06/03 05:52:55;;;;;;;;;;;;;;;5.62;100.00;99700.09;6160379;23;20002;-92
2023/06/03 05:55:22;;;;;;;;;;;;;;;5.59;100.00;99692.28;6186226;23;19919;-92
2023/06/03 05:57:50;;;;;;;;;;;;;;;5.61;100.00;99693.09;6160182;23;19912;-89
2023/06/03 06:00:33;;;;;;;;;;;;;;;5.58;100.00;99693.19;6158287;23;20399;-90
2023/06/03 06:02:59;;;;;;;;;;;;;;;5.62;100.00;99686.97;6186486;23;19917;-90
2023/06/03 06:05:26;;;;;;;;;;;;;;;5.60;100.00;99691.41;6186297;23;19913;-88
2023/06/03 06:07:52;;;;;;;;;;;;;;;5.63;100.00;99691.31;6160239;23;19916;-90
2023/06/03 06:10:17;;;;;;;;;;;;;;;5.62;100.00;99686.09;6159825;23;20240;-89
2023/06/03 06:12:42;;;;;;;;;;;;;;;5.58;100.00;99692.31;6159544;23;19916;-93
2023/06/03 06:15:08;;;;;;;;;;;;;;;5.57;100.00;99682.72;6157806;23;19913;-91
2023/06/03 06:17:33;;;;;;;;;;;;;;;5.58;100.00;99689.69;6185752;23;19916;-93
2023/06/03 06:20:02;;;;;;;;;;;;;;;5.60;100.00;99685.25;6186121;23;20256;-90
2023/06/03 06:22:27;;;;;;;;;;;;;;;5.62;100.00;99692.22;6159938;23;19912;-90
2023/06/03 06:24:52;;;;;;;;;;;;;;;5.64;100.00;99693.03;6159785;23;20355;-93
2023/06/03 06:27:17;;;;;;;;;;;;;;;5.63;100.00;99701.84;6159970;23;19919;-93
2023/06/03 06:29:43;;;;;;;;;;;;;;;5.60;100.00;99699.28;6185451;23;20305;-92
2023/06/03 06:32:09;;;;;;;;;;;;;;;5.63;100.00;99696.59;6185274;23;20000;-91
2023/06/03 06:34:35;;;;;;;;;;;;;;;5.63;100.00;99699.22;6186857;23;19920;-91
2023/06/03 06:37:00;;;;;;;;;;;;;;;5.64;100.00;99705.31;6160034;23;20387;-92
2023/06/03 06:39:34;;;;;;;;;;;;;;;5.60;100.00;99695.78;6159844;23;19908;-89
2023/06/03 06:42:23;;;;;;;;;;;;;;;5.62;100.00;99697.47;6185906;23;19966;-90
2023/06/03 06:44:49;;;;;;;;;;;;;;;5.62;100.00;99696.63;6164379;23;20325;-88
2023/06/03 06:47:20;;;;;;;;;;;;;;;5.68;100.00;99695.59;6185455;23;19916;-88
2023/06/03 06:49:45;;;;;;;;;;;;;;;5.70;100.00;99693.81;6185244;23;19923;-88
2023/06/03 06:52:11;;;;;;;;;;;;;;;5.72;100.00;99694.63;6159197;23;19913;-89
2023/06/03 06:54:37;;;;;;;;;;;;;;;5.76;100.00;99699.78;6185787;23;19983;-88
2023/06/03 06:57:02;;;;;;;;;;;;;;;5.74;100.00;99692.81;6185397;23;20441;-89
2023/06/03 06:59:27;;;;;;;;;;;;;;;5.74;100.00;99700.69;6185276;23;19912;-89
2023/06/03 07:01:53;;;;;;;;;;;;;;;5.71;100.00;99695.50;6184222;23;19923;-89
2023/06/03 07:04:18;;;;;;;;;;;;;;;5.70;100.00;99693.81;6158841;23;19947;-88
2023/06/03 07:06:44;;;;;;;;;;;;;;;5.64;100.00;99694.81;6187826;23;19940;-94
2023/06/03 07:09:10;;;;;;;;;;;;;;;5.61;100.00;99695.72;6161572;23;19913;-95
2023/06/03 07:11:41;;;;;;;;;;;;;;;5.64;100.00;99692.19;6185638;23;19939;-86
2023/06/03 07:14:07;;;;;;;;;;;;;;;5.66;100.00;99686.88;6185643;23;19912;-91
2023/06/03 07:16:32;;;;;;;;;;;;;;;5.62;100.00;99691.38;6188405;23;19927;-86
2023/06/03 07:18:57;;;;;;;;;;;;;;;5.66;100.00;99681.63;6186742;23;20339;-87
2023/06/03 07:21:25;;;;;;;;;;;;;;;5.71;100.00;99693.78;6159466;23;19912;-87
2023/06/03 07:23:50;;;;;;;;;;;;;;;5.73;100.00;99691.09;6185410;23;19912;-87
2023/06/03 07:26:18;;;;;;;;;;;;;;;5.75;100.00;99698.03;6185892;23;20275;-91
2023/06/03 07:28:47;;;;;;;;;;;;;;;5.74;100.00;99700.69;6161727;23;19958;-94
2023/06/03 07:31:13;;;;;;;;;;;;;;;5.79;100.00;99690.94;6184607;23;19916;-89
2023/06/03 07:33:54;;;;;;;;;;;;;;;5.74;100.00;99703.34;6187590;23;19986;-90
2023/06/03 07:36:20;;;;;;;;;;;;;;;5.74;100.00;99698.06;6188323;23;19912;-87
2023/06/03 07:39:02;;;;;;;;;;;;;;;5.74;100.00;99691.03;6187414;23;19917;-90
2023/06/03 07:41:33;;;;;;;;;;;;;;;5.78;100.00;99702.38;6189515;23;19959;-88
2023/06/03 07:43:58;;;;;;;;;;;;;;;5.75;100.00;99698.03;6187691;23;19919;-90
2023/06/03 07:46:35;;;;;;;;;;;;;;;5.81;100.00;99707.56;6186713;23;19912;-94
2023/06/03 07:49:02;;;;;;;;;;;;;;;5.80;100.00;99708.44;6161654;23;19959;-94
2023/06/03 07:51:27;;;;;;;;;;;;;;;5.78;100.00;99707.63;6187207;23;20324;-94
2023/06/03 07:53:55;;;;;;;;;;;;;;;5.82;100.00;99710.16;6185823;23;19970;-90
2023/06/03 07:56:21;;;;;;;;;;;;;;;5.82;100.00;99709.25;6186342;23;19939;-90
2023/06/03 07:58:46;;;;;;;;;;;;;;;5.76;100.00;99706.78;6160628;23;19916;-92
2023/06/03 08:01:16;;;;;;;;;;;;;;;5.74;100.00;99705.97;6151486;23;19959;-90
2023/06/03 08:03:42;;;;;;;;;;;;;;;5.73;100.00;99705.09;6160840;23;20315;-90
2023/06/03 08:06:11;;;;;;;;;;;;;;;5.80;100.00;99711.94;6186522;23;19912;-88
2023/06/03 08:08:36;;;;;;;;;;;;;;;5.75;100.00;99705.94;6159628;23;19966;-87
2023/06/03 08:11:14;;;;;;;;;;;;;;;;;;;;;
2023/06/03 08:13:40;;;;;;;;;;;;;;;5.74;100.00;99713.84;6185464;23;19991;-96
2023/06/03 08:16:05;;;;;;;;;;;;;;;5.81;100.00;99707.56;6157812;23;20296;-89
2023/06/03 08:18:41;;;;;;;;;;;;;;;5.83;100.00;99708.38;6184888;23;20309;-89
2023/06/03 08:21:06;;;;;;;;;;;;;;;5.84;100.00;99707.47;6185394;23;20004;-86
2023/06/03 08:23:42;;;;;;;;;;;;;;;;;;;;;
2023/06/03 08:26:18;;;;;;;;;;;;;;;5.82;100.00;99709.25;6185900;23;20296;-86
2023/06/03 08:28:44;;;;;;;;;;;;;;;5.82;100.00;99704.00;6185957;23;19916;-88
2023/06/03 08:31:10;;;;;;;;;;;;;;;5.77;100.00;99705.88;6183286;23;19945;-90
2023/06/03 08:33:35;;;;;;;;;;;;;;;5.83;100.00;99716.25;6158728;23;19966;-90
2023/06/03 08:36:03;;;;;;;;;;;;;;;5.83;100.00;99700.47;6185936;23;19919;-88
2023/06/03 08:38:28;;;;;;;;;;;;;;;5.81;100.00;99704.94;6160115;23;19912;-89
2023/06/03 08:40:55;;;;;;;;;;;;;;;5.75;100.00;99705.06;6189928;23;20253;-95
2023/06/03 08:43:21;;;;;;;;;;;;;;;5.81;100.00;99703.16;6187216;23;20384;-86
2023/06/03 08:46:06;;;;;;;;;;;;;;;5.83;100.00;99706.59;6186196;23;20328;-93
2023/06/03 08:49:00;;;;;;;;;;;;;;;5.77;100.00;99705.88;6162850;23;19917;-93
2023/06/03 08:51:28;;;;;;;;;;;;;;;5.82;100.00;99706.63;6154811;23;19959;-88
2023/06/03 08:53:53;;;;;;;;;;;;;;;5.86;100.00;99702.19;6187812;23;19919;-92
2023/06/03 08:56:19;;;;;;;;;;;;;;;5.83;100.00;99700.47;6187867;23;19912;-92
2023/06/03 08:58:51;;;;;;;;;;;;;;;5.80;100.00;99701.41;6163483;23;19916;-90
2023/06/03 09:01:19;;;;;;;;;;;;;;;5.81;100.00;99697.03;6158997;23;19912;-90
2023/06/03 09:03:45;;;;;;;;;;;;;;;5.82;100.00;99693.47;6187126;23;19931;-91
2023/06/03 09:06:18;;;;;;;;;;;;;;;5.77;100.00;99700.63;6162324;23;19999;-88
2023/06/03 09:08:44;;;;;;;;;;;;;;;5.85;100.00;99701.31;6162882;23;19920;-93
2023/06/03 09:11:16;;;;;;;;;;;;;;;5.86;100.00;99699.56;6188891;23;19912;-90
2023/06/03 09:13:42;;;;;;;;;;;;;;;5.82;100.00;99691.75;6187452;23;19935;-92
2023/06/03 09:16:08;;;;;;;;;;;;;;;5.82;100.00;99699.63;6185866;23;20352;-90
2023/06/03 09:18:34;;;;;;;;;;;;;;;5.94;100.00;99698.44;6188423;23;19916;-94
2023/06/03 09:21:07;;;;;;;;;;;;;;;5.88;100.00;99708.25;6187846;23;20221;-90
2023/06/03 09:23:32;;;;;;;;;;;;;;;5.88;100.00;99703.00;6125049;23;19992;-93
2023/06/03 09:26:08;;;;;;;;;;;;;;;;;;;;;
2023/06/03 09:28:35;;;;;;;;;;;;;;;5.84;100.00;99694.34;6119926;23;19999;-92
2023/06/03 09:31:01;;;;;;;;;;;;;;;5.87;100.00;99690.75;6123824;23;19917;-89
2023/06/03 09:33:26;;;;;;;;;;;;;;;5.86;100.00;99700.41;6126100;23;20384;-92
2023/06/03 09:36:05;;;;;;;;;;;;;;;5.88;100.00;99693.34;6125245;23;19913;-94
2023/06/03 09:38:44;;;;;;;;;;;;;;;5.89;100.00;99689.81;6125030;23;20396;-93
2023/06/03 09:41:17;;;;;;;;;;;;;;;5.89;100.00;99691.56;6126637;23;19916;-87
2023/06/03 09:43:52;;;;;;;;;;;;;;;5.86;100.00;99689.88;6126521;23;19917;-88
2023/06/03 09:46:18;;;;;;;;;;;;;;;5.92;100.00;99688.84;6123193;23;19917;-93
2023/06/03 09:48:44;;;;;;;;;;;;;;;5.87;100.00;99691.63;6171910;23;20045;-89
2023/06/03 09:51:09;;;;;;;;;;;;;;;5.85;100.00;99689.94;6188641;23;20494;-91
2023/06/03 09:53:34;;;;;;;;;;;;;;;5.84;100.00;99689.06;6187386;23;20315;-88
2023/06/03 09:56:19;;;;;;;;;;;;;;;5.81;100.00;99687.38;6186505;23;19935;-91
2023/06/03 09:58:45;;;;;;;;;;;;;;;5.80;100.00;99690.03;6186706;23;19924;-90
2023/06/03 10:01:11;;;;;;;;;;;;;;;5.87;100.00;99689.00;6185277;23;20019;-89
2023/06/03 10:03:37;;;;;;;;;;;;;;;5.88;100.00;99697.75;6186297;23;19963;-91
2023/06/03 10:06:28;;;;;;;;;;;;;;;5.80;100.00;99701.41;6186766;23;20375;-91
2023/06/03 10:08:53;;;;;;;;;;;;;;;5.80;100.00;99693.53;6180307;23;19912;-91
2023/06/03 10:11:19;;;;;;;;;;;;;;;5.79;100.00;99698.81;6160271;23;19947;-85
2023/06/03 10:13:44;;;;;;;;;;;;;;;5.85;100.00;99689.94;6160347;23;19920;-91
2023/06/03 10:16:10;;;;;;;;;;;;;;;5.80;100.00;99688.25;6158568;23;19994;-89
2023/06/03 10:18:40;;;;;;;;;;;;;;;5.81;100.00;99687.38;6186311;23;20343;-89
2023/06/03 10:21:12;;;;;;;;;;;;;;;5.83;100.00;99693.44;6161104;23;20236;-91
2023/06/03 10:23:39;;;;;;;;;;;;;;;5.83;100.00;99690.81;6159781;23;19927;-90
2023/06/03 10:26:04;;;;;;;;;;;;;;;5.89;100.00;99678.41;6186168;23;19995;-91
2023/06/03 10:28:30;;;;;;;;;;;;;;;5.90;100.00;99698.56;6186417;23;20327;-88
2023/06/03 10:30:57;;;;;;;;;;;;;;;5.89;100.00;99678.41;6184744;23;19916;-89
2023/06/03 10:33:23;;;;;;;;;;;;;;;5.95;100.00;99691.41;6186771;23;19920;-89
2023/06/03 10:35:49;;;;;;;;;;;;;;;5.83;100.00;99682.94;6189292;23;20024;-91
2023/06/03 10:38:21;;;;;;;;;;;;;;;5.87;100.00;99675.84;6186237;23;19982;-91
2023/06/03 10:40:47;;;;;;;;;;;;;;;5.81;100.00;99681.25;6186570;23;19912;-90
2023/06/03 10:43:13;;;;;;;;;;;;;;;5.77;100.00;99683.06;6159595;23;19923;-91
2023/06/03 10:45:38;;;;;;;;;;;;;;;5.87;100.00;99683.75;6184781;23;19912;-92
2023/06/03 10:48:12;;;;;;;;;;;;;;;5.91;100.00;99682.75;6159453;23;19919;-92
2023/06/03 10:50:46;;;;;;;;;;;;;;;5.91;100.00;99677.47;6186192;23;19912;-91
2023/06/03 10:53:27;;;;;;;;;;;;;;;5.94;100.00;99682.66;6187074;23;19909;-88
2023/06/03 10:55:52;;;;;;;;;;;;;;;5.90;100.00;99674.88;6187433;23;19950;-87
2023/06/03 10:58:25;;;;;;;;;;;;;;;5.89;100.00;99679.28;6159752;23;19908;-88
2023/06/03 11:00:56;;;;;;;;;;;;;;;5.88;100.00;99677.56;6156350;23;19947;-87
2023/06/03 11:03:26;;;;;;;;;;;;;;;5.89;100.00;99679.28;6159205;23;20320;-87
2023/06/03 11:05:51;;;;;;;;;;;;;;;5.86;100.00;99684.63;6161109;23;19912;-92
2023/06/03 11:08:35;;;;;;;;;;;;;;;5.86;100.00;99684.63;6159633;23;19913;-89
2023/06/03 11:11:01;;;;;;;;;;;;;;;5.96;100.00;99678.25;6161455;23;20277;-88
2023/06/03 11:13:42;;;;;;;;;;;;;;;5.99;100.00;99674.69;6159758;23;19963;-87
2023/06/03 11:16:08;;;;;;;;;;;;;;;5.95;100.00;99679.16;6158034;23;19920;-86
2023/06/03 11:18:33;;;;;;;;;;;;;;;5.93;100.00;99678.28;6158072;23;19931;-90
2023/06/03 11:20:58;;;;;;;;;;;;;;;5.94;100.00;99677.41;6184915;23;19995;-85
2023/06/03 11:23:39;;;;;;;;;;;;;;;5.93;100.00;99683.56;6184740;23;20271;-87
2023/06/03 11:26:23;;;;;;;;;;;;;;;5.87;100.00;99670.59;6159264;23;19967;-88
2023/06/03 11:28:48;;;;;;;;;;;;;;;5.86;100.00;99666.22;6158286;23;20280;-87
2023/06/03 11:31:20;;;;;;;;;;;;;;;5.84;100.00;99665.41;6157151;23;19920;-86
2023/06/03 11:34:05;;;;;;;;;;;;;;;5.87;100.00;99670.59;6158609;23;20332;-86
2023/06/03 11:36:48;;;;;;;;;;;;;;;5.86;100.00;99670.63;6183918;23;19913;-87
2023/06/03 11:39:14;;;;;;;;;;;;;;;5.93;100.00;99680.94;6185202;23;19919;-87
2023/06/03 11:42:00;;;;;;;;;;;;;;;5.91;100.00;99679.25;6158362;23;20218;-87
2023/06/03 11:44:25;;;;;;;;;;;;;;;5.88;100.00;99660.94;6182780;23;19912;-88
2023/06/03 11:46:53;;;;;;;;;;;;;;;5.86;100.00;99666.22;6182885;23;19912;-87
2023/06/03 11:49:22;;;;;;;;;;;;;;;5.88;100.00;99667.03;6184760;23;19916;-87
2023/06/03 11:51:49;;;;;;;;;;;;;;;5.93;100.00;99666.94;6158913;23;19916;-88
2023/06/03 11:54:17;;;;;;;;;;;;;;;5.87;100.00;99659.19;6158753;23;20316;-88
2023/06/03 11:56:46;;;;;;;;;;;;;;;5.92;100.00;99665.19;6189376;23;19924;-90
2023/06/03 11:59:13;;;;;;;;;;;;;;;5.93;100.00;99649.38;6159903;23;19912;-89
2023/06/03 12:01:53;;;;;;;;;;;;;;;5.91;100.00;99651.19;6183247;23;19916;-87
2023/06/03 12:04:23;;;;;;;;;;;;;;;5.88;100.00;99648.63;6184980;23;19913;-88
2023/06/03 12:06:48;;;;;;;;;;;;;;;5.84;100.00;99644.38;6158771;23;19916;-87
2023/06/03 12:09:18;;;;;;;;;;;;;;;5.88;100.00;99647.78;6184937;23;19956;-86
2023/06/03 12:11:43;;;;;;;;;;;;;;;5.84;100.00;99644.38;6184850;23;19923;-87
2023/06/03 12:14:10;;;;;;;;;;;;;;;5.85;100.00;99640.81;6158206;23;19912;-88
2023/06/03 12:16:36;;;;;;;;;;;;;;;5.87;100.00;99639.03;6157211;23;19916;-89
2023/06/03 12:19:03;;;;;;;;;;;;;;;5.92;100.00;99639.78;6159052;23;20240;-87
2023/06/03 12:21:28;;;;;;;;;;;;;;;5.85;100.00;99638.19;6158262;23;19908;-87
2023/06/03 12:23:54;;;;;;;;;;;;;;;5.88;100.00;99632.84;6184947;23;19940;-87
2023/06/03 12:26:20;;;;;;;;;;;;;;;5.90;100.00;99633.66;6184739;23;19923;-90
2023/06/03 12:28:56;;;;;;;;;;;;;;;5.93;100.00;99638.00;6184555;23;19920;-87
2023/06/03 12:31:21;;;;;;;;;;;;;;;5.95;100.00;99637.06;6183295;23;19920;-87
2023/06/03 12:33:46;;;;;;;;;;;;;;;5.97;100.00;99637.91;6158337;23;19913;-89
2023/06/03 12:36:24;;;;;;;;;;;;;;;;;;;;;
2023/06/03 12:38:57;;;;;;;;;;;;;;;5.94;100.00;99631.84;6185756;23;19976;-91
2023/06/03 12:41:23;;;;;;;;;;;;;;;5.99;100.00;99630.84;6158878;23;19919;-91
2023/06/03 12:43:57;;;;;;;;;;;;;;;6.04;100.00;99635.97;6161642;23;20367;-89
2023/06/03 12:46:24;;;;;;;;;;;;;;;5.95;100.00;99630.91;6157444;23;19913;-89
2023/06/03 12:48:50;;;;;;;;;;;;;;;5.93;100.00;99628.31;6184509;23;20291;-87
2023/06/03 12:51:34;;;;;;;;;;;;;;;5.92;100.00;99624.00;6184650;23;19987;-85
2023/06/03 12:53:59;;;;;;;;;;;;;;;8.05;100.00;99611.38;6159157;23;19915;-86
2023/06/03 12:56:28;;;;;;;;;;;;;;;6.71;100.00;99622.69;6160224;23;20320;-90
2023/06/03 12:58:54;;;;;;;;;;;;;;;6.49;100.00;99617.22;6187188;23;19916;-86
2023/06/03 13:01:22;;;;;;;;;;;;;;;6.40;100.00;99616.56;6184554;23;19920;-89
2023/06/03 13:03:48;;;;;;;;;;;;;;;6.34;100.00;99615.84;6186144;23;19913;-91
2023/06/03 13:06:14;;;;;;;;;;;;;;;6.26;100.00;99619.63;6186281;23;19916;-87
2023/06/03 13:08:42;;;;;;;;;;;;;;;6.34;100.00;99626.38;6158641;23;19912;-86
2023/06/03 13:11:08;;;;;;;;;;;;;;;6.30;100.00;99621.25;6158348;23;19923;-86
2023/06/03 13:13:34;;;;;;;;;;;;;;;6.31;100.00;99608.03;6184736;23;19912;-87
2023/06/03 13:16:06;;;;;;;;;;;;;;;6.32;100.00;99599.25;6182552;23;19951;-89
2023/06/03 13:18:49;;;;;;;;;;;;;;;6.35;100.00;99614.06;6158002;23;19955;-87
2023/06/03 13:21:14;;;;;;;;;;;;;;;6.33;100.00;99611.50;6184425;23;19916;-88
2023/06/03 13:23:50;;;;;;;;;;;;;;;6.29;100.00;99615.13;6158452;23;20328;-88
2023/06/03 13:26:17;;;;;;;;;;;;;;;6.28;100.00;99608.13;6159454;23;19995;-89
2023/06/03 13:28:45;;;;;;;;;;;;;;;6.26;100.00;99601.19;6158741;23;19920;-86
2023/06/03 13:31:19;;;;;;;;;;;;;;;6.30;100.00;99608.97;6183354;23;19923;-89
2023/06/03 13:33:47;;;;;;;;;;;;;;;6.33;100.00;99610.63;6185897;23;19923;-87
2023/06/03 13:36:12;;;;;;;;;;;;;;;6.27;100.00;99602.91;6185624;23;19912;-89
2023/06/03 13:38:37;;;;;;;;;;;;;;;6.25;100.00;99608.22;6185228;23;19923;-88
2023/06/03 13:41:05;;;;;;;;;;;;;;;6.26;100.00;99609.94;6159039;23;20329;-89
2023/06/03 13:43:34;;;;;;;;;;;;;;;6.30;100.00;99601.06;6159404;23;19912;-87
2023/06/03 13:46:01;;;;;;;;;;;;;;;6.33;100.00;99606.25;6185420;23;20374;-88
2023/06/03 13:48:27;;;;;;;;;;;;;;;6.33;100.00;99595.72;6186199;23;19983;-87
2023/06/03 13:50:53;;;;;;;;;;;;;;;6.34;100.00;99600.06;6185717;23;20273;-86
2023/06/03 13:53:18;;;;;;;;;;;;;;;6.31;100.00;99601.94;6186266;23;19995;-89
2023/06/03 13:55:52;;;;;;;;;;;;;;;6.38;100.00;99597.34;6186017;23;19944;-87
2023/06/03 13:58:17;;;;;;;;;;;;;;;6.33;100.00;99592.22;6186219;23;20313;-90
2023/06/03 14:00:43;;;;;;;;;;;;;;;6.29;100.00;99599.34;6158000;23;20008;-89
2023/06/03 14:03:37;;;;;;;;;;;;;;;6.31;100.00;99602.78;6160752;23;19915;-90
2023/06/03 14:06:11;;;;;;;;;;;;;;;6.31;100.00;99586.13;6186132;23;19920;-88
2023/06/03 14:08:39;;;;;;;;;;;;;;;6.29;100.00;99583.53;6160108;23;19919;-90
2023/06/03 14:11:11;;;;;;;;;;;;;;;6.38;100.00;99587.66;6186499;23;20387;-89
2023/06/03 14:13:36;;;;;;;;;;;;;;;6.42;100.00;99583.19;6186042;23;19912;-87
2023/06/03 14:16:04;;;;;;;;;;;;;;;6.41;100.00;99579.69;6159019;23;19913;-88
2023/06/03 14:18:29;;;;;;;;;;;;;;;6.41;100.00;99581.47;6156176;23;19916;-90
2023/06/03 14:20:55;;;;;;;;;;;;;;;6.34;100.00;99581.63;6161359;23;19923;-90
2023/06/03 14:23:22;;;;;;;;;;;;;;;6.38;100.00;99582.41;6187847;23;20351;-86
2023/06/03 14:25:50;;;;;;;;;;;;;;;6.38;100.00;99578.91;6185941;23;20006;-87
2023/06/03 14:28:15;;;;;;;;;;;;;;;6.41;100.00;99582.31;6159623;23;19918;-90
2023/06/03 14:30:41;;;;;;;;;;;;;;;6.40;100.00;99582.38;6159430;23;20295;-89
2023/06/03 14:33:06;;;;;;;;;;;;;;;6.45;100.00;99580.47;6185592;23;19916;-85
2023/06/03 14:35:31;;;;;;;;;;;;;;;6.49;100.00;99579.47;6185259;23;19951;-91
2023/06/03 14:37:59;;;;;;;;;;;;;;;6.48;100.00;99575.97;6160031;23;19917;-89
2023/06/03 14:40:24;;;;;;;;;;;;;;;6.47;100.00;99570.75;6187054;23;19920;-83
2023/06/03 14:42:50;;;;;;;;;;;;;;;6.40;100.00;99575.34;6186911;23;19912;-91
2023/06/03 14:45:18;;;;;;;;;;;;;;;6.46;100.00;99571.66;6185086;23;19995;-86
2023/06/03 14:47:43;;;;;;;;;;;;;;;6.57;100.00;99572.19;6185845;23;19917;-91
2023/06/03 14:50:11;;;;;;;;;;;;;;;7.56;100.00;99563.81;6185255;23;19919;-86
2023/06/03 14:52:37;;;;;;;;;;;;;;;6.76;100.00;99561.97;6185095;23;19919;-88
2023/06/03 14:55:03;;;;;;;;;;;;;;;6.66;100.00;99571.09;6158868;23;19912;-85
2023/06/03 14:57:28;;;;;;;;;;;;;;;6.55;100.00;99574.03;6185935;23;19958;-86
2023/06/03 14:59:53;;;;;;;;;;;;;;;7.93;100.00;99552.84;6157451;23;20248;-87
2023/06/03 15:02:18;;;;;;;;;;;;;;;6.82;100.00;99560.94;6184209;23;19987;-88
2023/06/03 15:04:44;;;;;;;;;;;;;;;6.60;100.00;99556.31;6158501;23;19912;-89
2023/06/03 15:07:11;;;;;;;;;;;;;;;6.58;100.00;99558.13;6185386;23;19916;-86
2023/06/03 15:09:37;;;;;;;;;;;;;;;6.57;100.00;99551.13;6182833;23;19918;-87
2023/06/03 15:12:05;;;;;;;;;;;;;;;7.69;100.00;99549.31;6158691;23;19943;-89
2023/06/03 15:14:30;;;;;;;;;;;;;;;14.31;100.00;99541.41;6184819;23;19917;-81
2023/06/03 15:16:57;;;;;;;;;;;;;;;8.29;100.00;99544.50;6181706;23;20339;-84
2023/06/03 15:19:22;;;;;;;;;;;;;;;7.37;100.00;99547.75;6183398;23;20005;-82
2023/06/03 15:21:48;;;;;;;;;;;;;;;7.17;100.00;99548.41;6184344;23;19977;-83
2023/06/03 15:24:13;;;;;;;;;;;;;;;6.96;100.00;99553.47;6183030;23;19919;-84
2023/06/03 15:26:38;;;;;;;;;;;;;;;6.83;100.00;99550.34;6184406;23;19912;-82
2023/06/03 15:29:03;;;;;;;;;;;;;;;6.99;100.00;99552.50;6183822;23;19912;-83
2023/06/03 15:31:29;;;;;;;;;;;;;;;6.86;100.00;99558.16;6183355;23;20400;-88
2023/06/03 15:33:54;;;;;;;;;;;;;;;6.72;100.00;99555.94;6158062;23;19915;-83
2023/06/03 15:36:20;;;;;;;;;;;;;;;6.72;100.00;99548.06;6184568;23;19922;-83
2023/06/03 15:38:45;;;;;;;;;;;;;;;6.65;100.00;99546.53;6158063;23;20329;-85
2023/06/03 15:41:10;;;;;;;;;;;;;;;6.68;100.00;99546.41;6158134;23;19935;-87
2023/06/03 15:43:36;;;;;;;;;;;;;;;6.71;100.00;99541.06;6158049;23;20008;-84
2023/06/03 15:46:01;;;;;;;;;;;;;;;6.62;100.00;99543.09;6182984;23;19908;-84
2023/06/03 15:48:26;;;;;;;;;;;;;;;6.70;100.00;99544.63;6157302;23;20401;-83
2023/06/03 15:50:52;;;;;;;;;;;;;;;6.68;100.00;99543.78;6158701;23;19923;-84
2023/06/03 15:53:18;;;;;;;;;;;;;;;6.65;100.00;99546.53;6184434;23;19916;-85
2023/06/03 15:55:43;;;;;;;;;;;;;;;6.64;100.00;99546.56;6184794;23;20376;-84
2023/06/03 15:58:08;;;;;;;;;;;;;;;6.72;100.00;99540.16;6184446;23;19912;-83
2023/06/03 16:00:34;;;;;;;;;;;;;;;6.71;100.00;99542.84;6180133;23;19951;-84
2023/06/03 16:02:59;;;;;;;;;;;;;;;6.69;100.00;99540.25;6132569;23;19913;-84
2023/06/03 16:05:24;;;;;;;;;;;;;;;6.64;100.00;99542.16;6183723;23;19923;-84
2023/06/03 16:07:50;;;;;;;;;;;;;;;6.59;100.00;99533.56;6184080;23;20234;-83
2023/06/03 16:10:15;;;;;;;;;;;;;;;6.59;100.00;99527.41;6183428;23;19917;-82
2023/06/03 16:12:41;;;;;;;;;;;;;;;6.53;100.00;99533.72;6185064;23;19943;-84